createdAt,value
2018-12-12T00:00:35.496Z,67.00
2018-12-12T00:03:02.867Z,65.73
2018-12-12T00:05:30.206Z,66.47
2018-12-12T00:07:57.554Z,70.07
2018-12-12T00:10:24.920Z,71.90
2018-12-12T00:12:52.326Z,72.03
2018-12-12T00:15:19.873Z,68.77
2018-12-12T00:17:47.833Z,68.57
2018-12-12T00:20:15.239Z,66.80
2018-12-12T00:22:42.582Z,67.87
2018-12-12T00:25:10.067Z,66.70
2018-12-12T00:27:37.404Z,66.90
2018-12-12T00:30:04.974Z,70.80
2018-12-12T00:32:32.426Z,70.80
2018-12-12T00:35:00.707Z,71.03
2018-12-12T00:37:28.051Z,65.30
2018-12-12T00:39:55.431Z,68.57
2018-12-12T00:42:22.752Z,68.37
2018-12-12T00:44:50.118Z,67.30
2018-12-12T00:47:17.482Z,65.10
2018-12-12T00:49:45.179Z,66.10
2018-12-12T00:52:12.729Z,69.90
2018-12-12T00:54:40.289Z,73.40
2018-12-12T00:57:07.874Z,69.20
2018-12-12T00:59:35.310Z,67.77
2018-12-12T01:02:02.779Z,66.80
2018-12-12T01:04:30.316Z,66.33
2018-12-12T01:06:57.699Z,66.33
2018-12-12T01:09:25.100Z,65.47
2018-12-12T01:11:57.899Z,66.23
2018-12-12T01:14:25.244Z,70.03
2018-12-12T01:16:52.600Z,71.80
2018-12-12T01:19:20.223Z,71.90
2018-12-12T01:21:47.630Z,68.77
2018-12-12T01:24:14.938Z,65.63
2018-12-12T01:26:42.321Z,67.10
2018-12-12T01:29:09.662Z,66.30
2018-12-12T01:31:37.033Z,64.83
2018-12-12T01:34:04.360Z,65.20
2018-12-12T01:36:31.763Z,67.47
2018-12-12T01:38:59.061Z,69.17
2018-12-12T01:41:26.451Z,69.40
2018-12-12T01:43:53.806Z,69.17
2018-12-12T01:46:21.151Z,65.87
2018-12-12T01:48:48.607Z,66.17
2018-12-12T01:51:15.974Z,66.00
2018-12-12T01:53:45.339Z,66.70
2018-12-12T01:56:12.697Z,66.33
2018-12-12T01:58:40.082Z,65.90
2018-12-12T02:01:07.615Z,69.90
2018-12-12T02:03:34.978Z,69.70
2018-12-12T02:06:03.550Z,69.57
2018-12-12T02:08:30.951Z,64.77
2018-12-12T02:10:58.303Z,65.53
2018-12-12T02:13:31.194Z,68.63
2018-12-12T02:15:58.534Z,69.33
2018-12-12T02:18:25.871Z,66.80
2018-12-12T02:20:53.313Z,66.57
2018-12-12T02:23:20.674Z,70.23
2018-12-12T02:25:48.084Z,71.63
2018-12-12T02:28:15.507Z,69.47
2018-12-12T02:30:42.883Z,66.30
2018-12-12T02:33:10.207Z,66.60
2018-12-12T02:35:37.611Z,64.97
2018-12-12T02:38:05.079Z,64.30
2018-12-12T02:40:32.498Z,65.40
2018-12-12T02:42:59.968Z,65.33
2018-12-12T02:45:27.398Z,71.10
2018-12-12T02:47:54.732Z,70.47
2018-12-12T02:50:22.179Z,72.43
2018-12-12T02:52:49.551Z,65.80
2018-12-12T02:55:16.923Z,66.53
2018-12-12T02:57:45.296Z,66.40
2018-12-12T03:00:12.916Z,64.87
2018-12-12T03:02:40.815Z,65.47
2018-12-12T03:05:08.221Z,67.27
2018-12-12T03:07:35.632Z,68.97
2018-12-12T03:10:03.032Z,72.10
2018-12-12T03:12:30.479Z,70.17
2018-12-12T03:14:57.945Z,70.20
2018-12-12T03:17:25.361Z,64.97
2018-12-12T03:19:52.815Z,65.53
2018-12-12T03:22:20.201Z,65.90
2018-12-12T03:24:47.661Z,68.10
2018-12-12T03:27:15.123Z,66.53
2018-12-12T03:29:42.595Z,66.27
2018-12-12T03:32:10.103Z,69.37
2018-12-12T03:34:37.489Z,69.30
2018-12-12T03:37:04.967Z,71.03
2018-12-12T03:39:32.942Z,65.23
2018-12-12T03:42:00.336Z,67.40
2018-12-12T03:44:27.693Z,65.67
2018-12-12T03:46:55.053Z,66.80
2018-12-12T03:49:22.455Z,66.83
2018-12-12T03:51:49.891Z,64.97
2018-12-12T03:54:17.229Z,70.00
2018-12-12T03:56:44.608Z,70.37
2018-12-12T03:59:12.087Z,69.87
2018-12-12T04:01:39.503Z,67.30
2018-12-12T04:04:06.832Z,66.53
2018-12-12T04:06:34.224Z,65.20
2018-12-12T04:09:01.567Z,65.87
2018-12-12T04:11:28.942Z,65.63
2018-12-12T04:13:56.404Z,66.77
2018-12-12T04:16:24.105Z,70.57
2018-12-12T04:18:51.744Z,69.67
2018-12-12T04:21:19.172Z,69.57
2018-12-12T04:23:46.481Z,65.07
2018-12-12T04:26:13.965Z,64.90
2018-12-12T04:28:41.331Z,64.17
2018-12-12T04:31:08.781Z,65.30
2018-12-12T04:33:36.094Z,67.83
2018-12-12T04:36:03.510Z,65.67
2018-12-12T04:38:30.923Z,71.57
2018-12-12T04:40:58.290Z,73.20
2018-12-12T04:43:25.644Z,70.70
2018-12-12T04:45:53.007Z,72.63
2018-12-12T04:48:20.335Z,66.23
2018-12-12T04:50:47.711Z,66.33
2018-12-12T04:53:15.074Z,64.87
2018-12-12T04:55:42.430Z,64.97
2018-12-12T04:58:09.783Z,65.60
2018-12-12T05:00:37.130Z,63.77
2018-12-12T05:03:04.731Z,69.30
2018-12-12T05:05:32.131Z,71.80
2018-12-12T05:07:59.523Z,68.40
2018-12-12T05:10:26.856Z,70.90
2018-12-12T05:12:54.192Z,66.73
2018-12-12T05:15:21.842Z,65.30
2018-12-12T05:17:49.190Z,67.23
2018-12-12T05:20:16.565Z,65.07
2018-12-12T05:22:43.922Z,65.93
2018-12-12T05:25:11.285Z,67.90
2018-12-12T05:27:38.662Z,69.50
2018-12-12T05:30:06.126Z,71.50
2018-12-12T05:32:33.560Z,66.53
2018-12-12T05:35:00.911Z,66.23
2018-12-12T05:37:28.243Z,65.67
2018-12-12T05:39:55.542Z,67.00
2018-12-12T05:42:22.971Z,65.70
2018-12-12T05:44:50.355Z,69.27
2018-12-12T05:47:17.954Z,68.33
2018-12-12T05:49:45.353Z,68.93
2018-12-12T05:52:12.719Z,69.20
2018-12-12T05:54:40.047Z,66.00
2018-12-12T05:57:07.407Z,68.63
2018-12-12T05:59:34.775Z,66.47
2018-12-12T06:02:02.127Z,66.00
2018-12-12T06:04:29.462Z,66.77
2018-12-12T06:06:56.838Z,67.10
2018-12-12T06:09:24.275Z,77.37
2018-12-12T06:11:51.618Z,72.07
2018-12-12T06:14:19.091Z,70.17
2018-12-12T06:16:46.458Z,68.13
2018-12-12T06:19:13.988Z,70.90
2018-12-12T06:21:41.359Z,68.83
2018-12-12T06:24:08.722Z,65.77
2018-12-12T06:26:37.445Z,69.20
2018-12-12T06:29:05.195Z,68.00
2018-12-12T06:31:32.515Z,71.20
2018-12-12T06:33:59.919Z,78.97
2018-12-12T06:36:27.323Z,70.70
2018-12-12T06:38:54.715Z,69.70
2018-12-12T06:41:22.168Z,71.70
2018-12-12T06:43:49.506Z,67.47
2018-12-12T06:46:17.001Z,65.60
2018-12-12T06:48:44.398Z,70.47
2018-12-12T06:51:11.811Z,66.90
2018-12-12T06:53:39.227Z,68.83
2018-12-12T06:56:06.586Z,72.03
2018-12-12T06:58:33.958Z,69.27
2018-12-12T07:01:01.408Z,69.17
2018-12-12T07:03:28.767Z,67.60
2018-12-12T07:05:56.083Z,77.33
2018-12-12T07:08:23.514Z,69.13
2018-12-12T07:10:51.302Z,74.27
2018-12-12T07:13:18.656Z,70.10
2018-12-12T07:15:46.066Z,79.23
2018-12-12T07:18:13.648Z,71.00
2018-12-12T07:20:41.151Z,70.07
2018-12-12T07:23:08.556Z,69.03
2018-12-12T07:25:35.970Z,68.60
2018-12-12T07:28:03.332Z,68.70
2018-12-12T07:30:30.691Z,69.53
2018-12-12T07:32:58.003Z,79.70
2018-12-12T07:35:25.395Z,67.73
2018-12-12T07:37:52.751Z,66.23
2018-12-12T07:40:20.113Z,72.70
2018-12-12T07:42:47.462Z,75.10
2018-12-12T07:45:14.838Z,70.70
2018-12-12T07:47:42.246Z,65.33
2018-12-12T07:50:09.612Z,83.43
2018-12-12T07:52:36.994Z,78.70
2018-12-12T07:55:04.329Z,71.73
2018-12-12T07:57:31.695Z,69.40
2018-12-12T07:59:59.127Z,67.53
2018-12-12T08:02:26.487Z,71.37
2018-12-12T08:04:53.879Z,76.07
2018-12-12T08:07:21.313Z,70.20
2018-12-12T08:09:48.655Z,68.20
2018-12-12T08:12:16.036Z,66.80
2018-12-12T08:14:43.383Z,65.17
2018-12-12T08:18:35.183Z,71.30
2018-12-12T08:21:02.667Z,74.53
2018-12-12T08:23:30.561Z,68.17
2018-12-12T08:25:58.150Z,73.30
2018-12-12T08:28:25.539Z,73.00
2018-12-12T08:30:52.921Z,74.63
2018-12-12T08:33:20.292Z,64.67
2018-12-12T08:37:12.025Z,71.47
2018-12-12T08:39:39.452Z,66.90
2018-12-12T08:42:06.795Z,65.17
2018-12-12T08:44:34.157Z,64.87
2018-12-12T08:47:01.529Z,67.60
2018-12-12T08:49:28.865Z,70.53
2018-12-12T08:51:56.207Z,70.50
2018-12-12T08:54:23.522Z,68.33
2018-12-12T08:56:52.267Z,68.07
2018-12-12T08:59:19.597Z,64.93
2018-12-12T09:01:46.950Z,65.27
2018-12-12T09:04:14.311Z,65.60
2018-12-12T09:06:42.631Z,75.40
2018-12-12T09:09:10.042Z,65.97
2018-12-12T09:11:37.372Z,68.80
2018-12-12T09:14:04.796Z,73.70
2018-12-12T09:16:32.128Z,73.30
2018-12-12T09:18:59.478Z,65.73
2018-12-12T09:21:26.822Z,75.07
2018-12-12T09:23:54.189Z,70.03
2018-12-12T09:26:21.518Z,64.57
2018-12-12T09:28:48.842Z,68.57
2018-12-12T09:31:16.188Z,65.97
2018-12-12T09:33:43.608Z,70.77
2018-12-12T09:36:10.931Z,69.67
2018-12-12T09:38:38.278Z,69.60
2018-12-12T09:41:05.594Z,66.07
2018-12-12T09:43:33.042Z,66.17
2018-12-12T09:46:00.451Z,65.73
2018-12-12T09:48:27.826Z,64.70
2018-12-12T09:50:55.192Z,65.57
2018-12-12T09:53:22.550Z,65.53
2018-12-12T09:55:50.876Z,69.20
2018-12-12T09:58:18.215Z,69.60
2018-12-12T10:00:45.527Z,71.03
2018-12-12T10:03:12.881Z,66.90
2018-12-12T10:05:40.240Z,67.60
2018-12-12T10:08:08.587Z,65.07
2018-12-12T10:10:35.940Z,66.03
2018-12-12T10:13:04.342Z,66.90
2018-12-12T10:15:32.095Z,67.27
2018-12-12T10:17:59.462Z,63.63
2018-12-12T10:20:26.785Z,74.10
2018-12-12T10:22:54.228Z,71.00
2018-12-12T10:25:21.594Z,71.47
2018-12-12T10:27:48.985Z,65.97
2018-12-12T10:30:16.364Z,65.90
2018-12-12T10:32:43.694Z,68.73
2018-12-12T10:35:11.073Z,68.40
2018-12-12T10:37:38.434Z,68.07
2018-12-12T10:40:06.004Z,66.03
2018-12-12T10:42:33.294Z,70.50
2018-12-12T10:45:00.597Z,68.77
2018-12-12T10:47:27.877Z,71.20
2018-12-12T10:49:55.265Z,66.97
2018-12-12T10:52:22.622Z,65.03
2018-12-12T10:54:49.990Z,65.77
2018-12-12T10:57:17.320Z,64.27
2018-12-12T10:59:44.681Z,66.30
2018-12-12T11:02:17.363Z,69.40
2018-12-12T11:04:46.170Z,67.47
2018-12-12T11:07:15.194Z,69.77
2018-12-12T11:09:44.224Z,72.50
2018-12-12T11:12:12.806Z,65.67
2018-12-12T11:14:41.391Z,66.27
2018-12-12T11:17:09.940Z,64.30
2018-12-12T11:19:39.017Z,66.87
2018-12-12T11:22:07.951Z,64.60
2018-12-12T11:24:36.906Z,64.40
2018-12-12T11:27:05.438Z,71.13
2018-12-12T11:29:33.982Z,68.10
2018-12-12T11:32:02.852Z,71.07
2018-12-12T11:34:32.415Z,64.93
2018-12-12T11:37:01.200Z,64.63
2018-12-12T11:39:30.073Z,69.40
2018-12-12T11:41:58.615Z,64.90
2018-12-12T11:44:28.071Z,65.33
2018-12-12T11:46:57.993Z,66.53
2018-12-12T11:49:26.960Z,68.50
2018-12-12T11:51:55.865Z,70.77
2018-12-12T11:54:23.518Z,70.00
2018-12-12T11:56:50.940Z,66.67
2018-12-12T11:59:18.265Z,66.17
2018-12-12T12:01:45.691Z,64.30
2018-12-12T12:04:13.104Z,65.70
2018-12-12T12:06:40.462Z,68.00
2018-12-12T12:09:08.197Z,66.87
2018-12-12T12:11:35.577Z,65.63
2018-12-12T12:14:03.246Z,69.83
2018-12-12T12:16:30.670Z,70.20
2018-12-12T12:18:57.982Z,72.50
2018-12-12T12:21:25.367Z,69.67
2018-12-12T12:23:52.741Z,67.23
2018-12-12T12:26:20.403Z,65.10
2018-12-12T12:28:48.802Z,67.70
2018-12-12T12:31:17.446Z,64.53
2018-12-12T12:33:44.919Z,65.20
2018-12-12T12:36:12.270Z,71.70
2018-12-12T12:40:05.759Z,69.70
2018-12-12T12:42:33.256Z,65.93
2018-12-12T12:45:00.773Z,68.33
2018-12-12T12:47:28.291Z,65.10
2018-12-12T12:49:55.764Z,65.47
2018-12-12T12:52:23.208Z,67.70
2018-12-12T12:54:50.592Z,65.27
2018-12-12T12:57:17.980Z,70.27
2018-12-12T12:59:45.343Z,71.70
2018-12-12T13:02:12.759Z,72.00
2018-12-12T13:04:40.123Z,69.10
2018-12-12T13:07:07.659Z,81.37
2018-12-12T13:09:35.028Z,66.87
2018-12-12T13:12:02.541Z,66.70
2018-12-12T13:14:30.063Z,70.77
2018-12-12T13:16:57.445Z,68.57
2018-12-12T13:19:25.177Z,65.63
2018-12-12T13:21:52.527Z,71.70
2018-12-12T13:24:19.895Z,69.93
2018-12-12T13:26:53.168Z,70.63
2018-12-12T13:29:16.650Z,65.00
2018-12-12T13:31:44.000Z,68.77
2018-12-12T13:34:16.154Z,67.90
2018-12-12T13:36:40.747Z,65.67
2018-12-12T13:39:08.407Z,67.57
2018-12-12T13:41:35.899Z,66.37
2018-12-12T13:44:03.351Z,70.50
2018-12-12T13:46:30.700Z,70.00
2018-12-12T13:48:58.054Z,73.33
2018-12-12T13:51:26.110Z,66.73
2018-12-12T13:53:53.555Z,66.13
2018-12-12T13:56:21.018Z,67.67
2018-12-12T13:58:48.362Z,64.67
2018-12-12T14:01:15.979Z,67.27
2018-12-12T14:03:43.406Z,73.83
2018-12-12T14:06:10.778Z,74.57
2018-12-12T14:08:38.107Z,71.00
2018-12-12T14:11:05.662Z,72.17
2018-12-12T14:13:33.049Z,69.70
2018-12-12T14:16:00.507Z,67.10
2018-12-12T14:18:27.910Z,65.10
2018-12-12T14:20:55.407Z,64.73
2018-12-12T14:23:22.753Z,65.40
2018-12-12T14:25:50.096Z,68.63
2018-12-12T14:28:17.639Z,70.93
2018-12-12T14:30:45.093Z,74.40
2018-12-12T14:33:12.612Z,75.43
2018-12-12T14:35:40.471Z,70.00
2018-12-12T14:38:07.896Z,74.60
2018-12-12T14:40:35.256Z,65.80
2018-12-12T14:43:02.609Z,67.33
2018-12-12T14:45:29.993Z,67.57
2018-12-12T14:47:57.409Z,65.70
2018-12-12T14:50:24.769Z,71.50
2018-12-12T14:52:52.784Z,72.30
2018-12-12T14:55:20.191Z,70.77
2018-12-12T14:57:47.845Z,71.03
2018-12-12T15:00:15.623Z,69.70
2018-12-12T15:02:43.078Z,66.20
2018-12-12T15:05:10.467Z,65.87
2018-12-12T15:14:36.805Z,72.93
2018-12-12T15:17:04.466Z,73.97
2018-12-12T15:19:31.843Z,83.50
2018-12-12T15:21:59.330Z,67.67
2018-12-12T15:24:26.735Z,66.20
2018-12-12T15:26:54.085Z,68.60
2018-12-12T15:29:21.442Z,67.37
2018-12-12T15:31:48.827Z,66.47
2018-12-12T15:34:16.155Z,66.50
2018-12-12T15:36:43.517Z,69.90
2018-12-12T15:39:10.871Z,72.33
2018-12-12T15:41:38.228Z,71.00
2018-12-12T15:44:05.559Z,65.77
2018-12-12T15:46:32.934Z,66.20
2018-12-12T15:49:00.307Z,66.97
2018-12-12T15:51:27.619Z,69.00
2018-12-12T15:53:55.463Z,66.13
2018-12-12T15:56:22.875Z,67.30
2018-12-12T15:59:52.993Z,72.40
2018-12-12T16:02:20.398Z,72.17
2018-12-12T16:04:49.156Z,71.00
2018-12-12T16:07:16.814Z,69.60
2018-12-12T16:09:44.143Z,69.07
2018-12-12T16:12:26.181Z,68.37
2018-12-12T16:14:53.600Z,67.40
2018-12-12T16:17:21.035Z,66.80
2018-12-12T16:19:48.523Z,66.87
2018-12-12T16:22:15.906Z,77.00
2018-12-12T16:24:43.336Z,69.80
2018-12-12T16:27:10.682Z,70.77
2018-12-12T16:29:38.046Z,67.63
2018-12-12T16:32:05.497Z,67.77
2018-12-12T16:34:32.868Z,69.80
2018-12-12T16:37:00.241Z,67.70
2018-12-12T16:39:27.862Z,68.47
2018-12-12T16:41:55.224Z,66.03
2018-12-12T16:44:22.592Z,69.97
2018-12-12T16:46:49.962Z,74.50
2018-12-12T16:49:17.327Z,69.50
2018-12-12T16:51:44.752Z,66.37
2018-12-12T16:54:12.118Z,65.77
2018-12-12T16:56:39.454Z,68.70
2018-12-12T16:59:06.828Z,72.07
2018-12-12T17:01:34.267Z,68.37
2018-12-12T17:04:01.936Z,66.80
2018-12-12T17:06:29.286Z,74.50
2018-12-12T17:08:56.628Z,79.60
2018-12-12T17:11:24.134Z,80.83
2018-12-12T17:13:51.555Z,78.97
2018-12-12T17:16:19.035Z,70.07
2018-12-12T17:18:46.480Z,75.17
2018-12-12T17:21:13.852Z,69.97
2018-12-12T17:23:41.288Z,73.23
2018-12-12T17:26:08.626Z,80.40
2018-12-12T17:28:35.978Z,68.60
2018-12-12T17:31:03.344Z,74.97
2018-12-12T17:33:30.695Z,76.80
2018-12-12T17:35:59.103Z,86.13
2018-12-12T17:38:26.569Z,73.83
2018-12-12T17:40:54.010Z,70.93
2018-12-12T17:43:22.807Z,71.63
2018-12-12T17:45:50.334Z,71.67
2018-12-12T17:48:17.932Z,76.10
2018-12-12T17:50:45.386Z,74.73
2018-12-12T17:53:12.807Z,78.00
2018-12-12T17:55:40.183Z,81.93
2018-12-12T17:58:07.526Z,80.93
2018-12-12T18:00:34.910Z,73.77
2018-12-12T18:03:02.543Z,75.87
2018-12-12T18:05:30.220Z,74.67
2018-12-12T18:07:57.559Z,79.63
2018-12-12T18:10:24.931Z,80.50
2018-12-12T18:12:52.299Z,74.20
2018-12-12T18:15:19.710Z,82.73
2018-12-12T18:17:47.093Z,83.77
2018-12-12T18:20:14.443Z,84.60
2018-12-12T18:22:41.799Z,75.63
2018-12-12T18:25:09.152Z,78.30
2018-12-12T18:27:37.636Z,77.50
2018-12-12T18:30:05.524Z,77.23
2018-12-12T18:32:32.935Z,77.30
2018-12-12T18:35:00.287Z,78.00
2018-12-12T18:37:27.686Z,79.50
2018-12-12T18:39:55.122Z,84.50
2018-12-12T18:42:22.468Z,86.20
2018-12-12T18:44:49.820Z,85.37
2018-12-12T18:47:17.176Z,82.07
2018-12-12T18:49:44.691Z,88.50
2018-12-12T18:52:12.105Z,78.97
2018-12-12T18:54:39.582Z,80.10
2018-12-12T18:57:06.991Z,80.40
2018-12-12T18:59:34.354Z,83.57
2018-12-12T19:02:01.763Z,81.57
2018-12-12T19:04:29.176Z,80.10
2018-12-12T19:06:56.530Z,79.60
2018-12-12T19:09:23.879Z,78.67
2018-12-12T19:11:51.265Z,85.17
2018-12-12T19:14:18.731Z,84.00
2018-12-12T19:16:46.165Z,77.30
2018-12-12T19:19:13.607Z,75.90
2018-12-12T19:21:40.964Z,78.13
2018-12-12T19:24:08.523Z,91.20
2018-12-12T19:26:35.890Z,93.90
2018-12-12T19:29:03.402Z,102.83
2018-12-12T19:31:30.898Z,88.97
2018-12-12T19:33:58.261Z,87.47
2018-12-12T19:36:25.715Z,89.30
2018-12-12T19:38:53.158Z,97.27
2018-12-12T19:41:20.615Z,84.43
2018-12-12T19:43:48.139Z,76.10
2018-12-12T19:46:15.659Z,82.73
2018-12-12T19:48:43.222Z,81.80
2018-12-12T19:51:10.764Z,82.90
2018-12-12T19:53:38.223Z,110.43
2018-12-12T19:56:05.848Z,134.83
2018-12-12T19:58:33.361Z,100.67
2018-12-12T20:01:00.921Z,80.87
2018-12-12T20:03:28.480Z,80.97
2018-12-12T20:05:56.029Z,88.63
2018-12-12T20:08:25.276Z,87.27
2018-12-12T20:10:52.796Z,84.73
2018-12-12T20:13:20.366Z,80.60
2018-12-12T20:15:47.885Z,81.77
2018-12-12T20:18:15.614Z,85.30
2018-12-12T20:20:43.098Z,76.43
2018-12-12T20:23:10.523Z,82.43
2018-12-12T20:25:37.959Z,86.40
2018-12-12T20:28:05.400Z,84.50
2018-12-12T20:30:35.469Z,89.23
2018-12-12T20:33:02.275Z,84.07
2018-12-12T20:35:30.359Z,83.93
2018-12-12T20:37:57.794Z,79.73
2018-12-12T20:40:25.246Z,85.13
2018-12-12T20:42:55.541Z,77.80
2018-12-12T20:45:23.696Z,75.87
2018-12-12T20:47:51.323Z,77.83
2018-12-12T20:50:19.074Z,74.30
2018-12-12T20:52:46.942Z,74.20
2018-12-12T20:55:14.372Z,76.70
2018-12-12T20:57:41.752Z,78.83
2018-12-12T21:00:09.367Z,75.50
2018-12-12T21:02:36.824Z,76.40
2018-12-12T21:05:04.430Z,72.90
2018-12-12T21:07:31.953Z,77.17
2018-12-12T21:09:59.508Z,77.37
2018-12-12T21:12:26.987Z,78.80
2018-12-12T21:14:54.488Z,77.83
2018-12-12T21:17:21.978Z,78.80
2018-12-12T21:19:49.420Z,76.70
2018-12-12T21:22:16.847Z,77.37
2018-12-12T21:24:44.272Z,77.83
2018-12-12T21:27:11.615Z,74.87
2018-12-12T21:29:39.234Z,75.70
2018-12-12T21:32:06.619Z,76.00
2018-12-12T21:34:36.015Z,75.60
2018-12-12T21:37:03.518Z,72.20
2018-12-12T21:39:30.934Z,78.90
2018-12-12T21:41:58.281Z,76.70
2018-12-12T21:44:25.691Z,77.07
2018-12-12T21:46:53.104Z,76.87
2018-12-12T21:49:20.471Z,75.50
2018-12-12T21:51:47.827Z,79.20
2018-12-12T21:54:15.172Z,81.23
2018-12-12T21:56:42.523Z,75.17
2018-12-12T21:59:09.911Z,75.87
2018-12-12T22:01:37.349Z,77.60
2018-12-12T22:04:04.808Z,77.97
2018-12-12T22:06:32.154Z,74.97
2018-12-12T22:08:59.499Z,74.97
2018-12-12T22:11:26.867Z,73.70
2018-12-12T22:13:54.163Z,73.70
2018-12-12T22:16:21.582Z,73.37
2018-12-12T22:18:48.926Z,75.47
2018-12-12T22:21:16.291Z,71.80
2018-12-12T22:23:43.626Z,75.17
2018-12-12T22:26:10.987Z,76.00
2018-12-12T22:28:38.343Z,74.07
2018-12-12T22:31:05.691Z,72.57
2018-12-12T22:33:33.062Z,72.00
2018-12-12T22:36:00.605Z,73.70
2018-12-12T22:38:27.950Z,75.10
2018-12-12T22:40:55.320Z,86.10
2018-12-12T22:43:22.654Z,78.10
2018-12-12T22:45:50.044Z,76.90
2018-12-12T22:48:20.527Z,73.40
2018-12-12T22:50:46.788Z,74.43
2018-12-12T22:53:14.161Z,72.33
2018-12-12T22:55:41.496Z,72.67
2018-12-12T22:58:08.858Z,72.30
2018-12-12T23:00:36.308Z,74.47
2018-12-12T23:03:04.056Z,75.10
2018-12-12T23:05:31.440Z,77.20
2018-12-12T23:07:59.901Z,75.60
2018-12-12T23:10:27.307Z,76.70
2018-12-12T23:12:54.852Z,76.03
2018-12-12T23:15:22.498Z,76.13
2018-12-12T23:17:49.861Z,72.70
2018-12-12T23:20:17.192Z,74.20
2018-12-12T23:22:44.552Z,76.20
2018-12-12T23:25:11.907Z,73.60
2018-12-12T23:27:39.235Z,72.73
2018-12-12T23:30:07.023Z,71.13
2018-12-12T23:32:34.484Z,71.57
2018-12-12T23:35:01.855Z,71.13
2018-12-12T23:37:29.201Z,75.63
2018-12-12T23:39:56.858Z,73.77
2018-12-12T23:42:24.212Z,72.77
2018-12-12T23:44:51.556Z,73.37
2018-12-12T23:47:18.939Z,72.80
2018-12-12T23:49:46.258Z,71.37
2018-12-12T23:52:13.615Z,72.77
2018-12-12T23:54:40.990Z,73.37
2018-12-12T23:57:08.351Z,76.77
2018-12-12T23:59:35.712Z,85.13
